| time (UTC) | temp F | wind direction | speed knots | gust knots | rain 1hr in | rain 24hr in | rain mn in | humidity % | barometer mb |
| 20260906203054 | 76 | 242 | 0.9 | 11.3 | 0.00 | 0.00 | 0.00 | 65 | 1020.5 |
| 20260906201550 | 76 | 214 | 3.5 | 8.7 | 0.00 | 0.00 | 0.00 | 62 | 1020.5 |
| 20260906200052 | 76 | 201 | 2.6 | 8.7 | 0.00 | 0.00 | 0.00 | 63 | 1020.6 |
| 20260906194554 | 76 | 233 | 4.3 | 10.4 | 0.00 | 0.00 | 0.00 | 64 | 1020.6 |
| 20260906193053 | 78 | 237 | 1.7 | 7.8 | 0.00 | 0.00 | 0.00 | 63 | 1020.9 |
| 20260906191555 | 78 | 238 | 1.7 | 8.7 | 0.00 | 0.00 | 0.00 | 63 | 1020.8 |
| 20260906190055 | 78 | 222 | 1.7 | 7.8 | 0.00 | 0.00 | 0.00 | 54 | 1020.9 |
| 20260906184555 | 78 | 191 | 1.7 | 7.8 | 0.00 | 0.00 | 0.00 | 54 | 1021.0 |
| 20260906183047 | 78 | 222 | 3.5 | 7.8 | 0.00 | 0.00 | 0.00 | 51 | 1021.0 |
| 20260906181600 | 78 | 220 | 3.5 | 9.6 | 0.00 | 0.00 | 0.00 | 51 | 1021.0 |
| 20260906180056 | 77 | 212 | 3.5 | 8.7 | 0.00 | 0.00 | 0.00 | 54 | 1021.1 |
| 20260906174552 | 77 | 239 | 0.9 | 8.7 | 0.00 | 0.00 | 0.00 | 55 | 1021.0 |
| 20260906173052 | 77 | 230 | 3.5 | 7.0 | 0.00 | 0.00 | 0.00 | 53 | 1021.0 |
| 20260906171559 | 77 | 238 | 0.9 | 7.0 | 0.00 | 0.00 | 0.00 | 56 | 1021.1 |
| 20260906170053 | 76 | 0 | 1.7 | 7.8 | 0.00 | 0.00 | 0.00 | 62 | 1021.2 |
| 20260906164549 | 76 | 213 | 3.5 | 6.1 | 0.00 | 0.00 | 0.00 | 59 | 1021.3 |
| 20260906163059 | 75 | 190 | 0.9 | 7.0 | 0.00 | 0.00 | 0.00 | 62 | 1021.4 |
| 20260906161556 | 74 | 187 | 2.6 | 6.1 | 0.00 | 0.00 | 0.00 | 65 | 1021.7 |
| 20260906160053 | 74 | 0 | 0.9 | 4.3 | 0.00 | 0.00 | 0.00 | 62 | 1021.7 |
| 20260906154555 | 74 | 200 | 0.9 | 4.3 | 0.00 | 0.00 | 0.00 | 69 | 1021.8 |
| 20260906153045 | 73 | 192 | 0.9 | 4.3 | 0.00 | 0.00 | 0.00 | 72 | 1021.8 |
| 20260906151602 | 73 | 191 | 0.0 | 5.2 | 0.00 | 0.00 | 0.00 | 72 | 1021.7 |
| 20260906150059 | 72 | 149 | 1.7 | 4.3 | 0.00 | 0.00 | 0.00 | 73 | 1021.7 |
| 20260906144604 | 72 | 0 | 0.0 | 2.6 | 0.00 | 0.00 | 0.00 | 74 | 1021.7 |
| 20260906143108 | 71 | 0 | 0.0 | 1.7 | 0.00 | 0.00 | 0.00 | 74 | 1021.6 |
| 20260906141554 | 71 | 0 | 0.0 | 0.0 | 0.00 | 0.00 | 0.00 | 68 | 1021.5 |
| 20260906140047 | 68 | 0 | 0.0 | 0.0 | 0.00 | 0.00 | 0.00 | 75 | 1021.7 |
| 20260906134555 | 65 | 0 | 0.0 | 0.9 | 0.00 | 0.00 | 0.00 | 86 | 1021.5 |
| 20260906133101 | 61 | 0 | 0.0 | 1.7 | 0.00 | 0.00 | 0.00 | 97 | 1021.4 |
| 20260906131557 | 58 | 0 | 0.0 | 3.5 | 0.00 | 0.00 | 0.00 | 100 | 1021.5 |
| 20260906130048 | 54 | 35 | 1.7 | 3.5 | 0.00 | 0.00 | 0.00 | 100 | 1021.5 |
| 20260906124555 | 51 | 35 | 0.9 | 3.5 | 0.00 | 0.00 | 0.00 | 100 | 1021.4 |
| 20260906123054 | 48 | 35 | 1.7 | 4.3 | 0.00 | 0.00 | 0.00 | 100 | 1021.3 |
| 20260906121548 | 47 | 35 | 1.7 | 3.5 | 0.00 | 0.00 | 0.00 | 99 | 1021.4 |
| 20260906120045 | 46 | 35 | 1.7 | 3.5 | 0.00 | 0.00 | 0.00 | 99 | 1021.3 |
| 20260906114556 | 46 | 35 | 1.7 | 2.6 | 0.00 | 0.00 | 0.00 | 99 | 1021.0 |
| 20260906113053 | 46 | 35 | 0.9 | 3.5 | 0.00 | 0.00 | 0.00 | 98 | 1020.9 |
| 20260906111549 | 46 | 35 | 1.7 | 2.6 | 0.00 | 0.00 | 0.00 | 98 | 1020.9 |
| 20260906110053 | 46 | 35 | 0.0 | 2.6 | 0.00 | 0.00 | 0.00 | 98 | 1020.7 |
| 20260906104550 | 47 | 0 | 0.0 | 2.6 | 0.00 | 0.00 | 0.00 | 98 | 1020.8 |
| 20260906103057 | 47 | 35 | 0.9 | 3.5 | 0.00 | 0.00 | 0.00 | 98 | 1020.7 |
| 20260906101543 | 47 | 35 | 1.7 | 2.6 | 0.00 | 0.00 | 0.00 | 98 | 1020.7 |
| 20260906100052 | 47 | 0 | 0.0 | 3.5 | 0.00 | 0.00 | 0.00 | 98 | 1020.8 |
| 20260906094559 | 48 | 35 | 2.6 | 3.5 | 0.00 | 0.00 | 0.00 | 98 | 1020.7 |
| 20260906093113 | 48 | 35 | 2.6 | 3.5 | 0.00 | 0.00 | 0.00 | 98 | 1020.7 |
| 20260906091557 | 48 | 35 | 0.9 | 3.5 | 0.00 | 0.00 | 0.00 | 98 | 1020.7 |
| 20260906090058 | 49 | 35 | 1.7 | 4.3 | 0.00 | 0.00 | 0.00 | 98 | 1020.6 |
| 20260906084551 | 49 | 35 | 1.7 | 4.3 | 0.00 | 0.00 | 0.00 | 97 | 1020.5 |
| 20260906083056 | 49 | 35 | 1.7 | 3.5 | 0.00 | 0.00 | 0.00 | 97 | 1020.6 |
| 20260906081555 | 49 | 35 | 1.7 | 4.3 | 0.00 | 0.00 | 0.00 | 97 | 1020.4 |
| 20260906080055 | 49 | 35 | 1.7 | 4.3 | 0.00 | 0.00 | 0.00 | 97 | 1020.2 |
| 20260906074550 | 49 | 35 | 2.6 | 4.3 | 0.00 | 0.00 | 0.00 | 97 | 1020.1 |
| 20260906073057 | 49 | 35 | 1.7 | 3.5 | 0.00 | 0.00 | 0.00 | 97 | 1020.0 |
| 20260906071606 | 50 | 36 | 0.9 | 2.6 | 0.00 | 0.00 | 0.00 | 97 | 1020.0 |
| 20260906070050 | 50 | 35 | 0.9 | 3.5 | 0.00 | 0.00 | 0.00 | 96 | 1020.0 |
| 20260906064555 | 51 | 35 | 1.7 | 3.5 | 0.00 | 0.00 | 0.00 | 96 | 1019.7 |
| 20260906063055 | 51 | 35 | 0.9 | 2.6 | 0.00 | 0.00 | 0.00 | 96 | 1019.8 |
| 20260906061554 | 51 | 35 | 1.7 | 3.5 | 0.00 | 0.00 | 0.00 | 96 | 1019.8 |
| 20260906060101 | 52 | 35 | 0.9 | 3.5 | 0.00 | 0.00 | 0.00 | 96 | 1019.6 |
| 20260906054558 | 52 | 35 | 1.7 | 3.5 | 0.00 | 0.00 | 0.00 | 96 | 1019.7 |
| 20260906053051 | 53 | 35 | 0.0 | 2.6 | 0.00 | 0.00 | 0.00 | 96 | 1019.5 |
| 20260906051558 | 53 | 35 | 1.7 | 4.3 | 0.00 | 0.00 | 0.00 | 96 | 1019.5 |
| 20260906050116 | 54 | 36 | 1.7 | 4.3 | 0.00 | 0.00 | 0.00 | 96 | 1019.4 |
| 20260906044555 | 54 | 36 | 1.7 | 4.3 | 0.00 | 0.00 | 0.00 | 95 | 1019.4 |
| 20260906043059 | 54 | 36 | 2.6 | 4.3 | 0.00 | 0.00 | 0.00 | 95 | 1019.2 |
| 20260906041554 | 55 | 36 | 1.7 | 3.5 | 0.00 | 0.00 | 0.00 | 95 | 1019.1 |
| 20260906040058 | 55 | 37 | 1.7 | 5.2 | 0.00 | 0.00 | 0.00 | 94 | 1019.1 |
| 20260906034554 | 56 | 270 | 1.7 | 3.5 | 0.00 | 0.00 | 0.00 | 94 | 1019.1 |
| 20260906033048 | 56 | 0 | 0.9 | 1.7 | 0.00 | 0.00 | 0.00 | 94 | 1019.1 |
| 20260906031555 | 57 | 0 | 0.0 | 0.9 | 0.00 | 0.00 | 0.00 | 94 | 1018.8 |
| 20260906030112 | 58 | 0 | 0.0 | 2.6 | 0.00 | 0.00 | 0.00 | 94 | 1018.7 |
| 20260906024550 | 58 | 270 | 1.7 | 5.2 | 0.00 | 0.00 | 0.00 | 93 | 1018.7 |
| 20260906023053 | 59 | 270 | 2.6 | 5.2 | 0.00 | 0.00 | 0.00 | 92 | 1018.7 |
| 20260906021608 | 59 | 270 | 0.0 | 2.6 | 0.00 | 0.00 | 0.00 | 92 | 1018.7 |
| 20260906020053 | 60 | 270 | 0.0 | 5.2 | 0.00 | 0.00 | 0.00 | 92 | 1018.5 |
| 20260906014546 | 61 | 270 | 2.6 | 5.2 | 0.00 | 0.00 | 0.00 | 92 | 1018.6 |
| 20260906013053 | 62 | 270 | 1.7 | 5.2 | 0.00 | 0.00 | 0.00 | 91 | 1018.4 |
| 20260906011553 | 62 | 269 | 2.6 | 5.2 | 0.00 | 0.00 | 0.00 | 90 | 1018.3 |
| 20260906010051 | 64 | 0 | 0.9 | 2.6 | 0.00 | 0.00 | 0.00 | 88 | 1018.2 |
| 20260906004558 | 65 | 0 | 0.0 | 0.9 | 0.00 | 0.00 | 0.00 | 87 | 1018.2 |
| 20260906003106 | 66 | 0 | 0.0 | 0.9 | 0.00 | 0.00 | 0.00 | 85 | 1018.2 |
| 20260906001554 | 67 | 0 | 0.0 | 0.0 | 0.00 | 0.00 | 0.00 | 82 | 1018.2 |
| 20260906000050 | 69 | 0 | 0.0 | 0.0 | 0.00 | 0.00 | 0.00 | 79 | 1018.1 |
| 20260905234554 | 71 | 0 | 0.0 | 0.0 | 0.00 | 0.00 | 0.00 | 77 | 1018.2 |
| 20260905233054 | 72 | 0 | 0.0 | 0.9 | 0.00 | 0.00 | 0.00 | 74 | 1018.1 |
| 20260905231554 | 73 | 0 | 0.0 | 4.3 | 0.00 | 0.00 | 0.00 | 68 | 1018.2 |
| 20260905230053 | 74 | 232 | 1.7 | 5.2 | 0.00 | 0.00 | 0.00 | 64 | 1018.2 |
| 20260905224555 | 74 | 233 | 0.9 | 4.3 | 0.00 | 0.00 | 0.00 | 65 | 1018.0 |
| 20260905223054 | 74 | 208 | 0.0 | 7.0 | 0.00 | 0.00 | 0.00 | 64 | 1018.0 |
| 20260905221554 | 76 | 0 | 1.7 | 7.0 | 0.00 | 0.00 | 0.00 | 65 | 1017.8 |
| 20260905220100 | 77 | 229 | 0.9 | 6.1 | 0.00 | 0.00 | 0.00 | 64 | 1017.7 |
| 20260905214606 | 78 | 0 | 0.0 | 8.7 | 0.00 | 0.00 | 0.00 | 62 | 1017.4 |
| 20260905213114 | 79 | 229 | 0.9 | 4.3 | 0.00 | 0.00 | 0.00 | 56 | 1017.4 |
| 20260905211600 | 78 | 213 | 0.9 | 6.1 | 0.00 | 0.00 | 0.00 | 58 | 1017.3 |
| 20260905210052 | 79 | 0 | 0.9 | 7.8 | 0.00 | 0.00 | 0.00 | 56 | 1017.3 |
| 20260905204550 | 79 | 207 | 2.6 | 9.6 | 0.00 | 0.00 | 0.00 | 53 | 1017.5 |